Latest Weather Observations for Christmas Creek

IDW60801

Issued at 4:34 am WST Saturday 27 May 2017 (issued every 30 minutes, with the page automatically refreshed every 10 minutes)

About weather observations | Map of weather stations | Latest weather observations for WA | Other Formats
Station Details ID: 505049 Name: CHRISTMAS CREEK Lat: -22.36 Lon: 119.65 Height: 437.21 m
Data from the previous 72 hours. | See also: Recent months for locations in Western Australia
Date/Time
WST
Temp
°C
App
Temp
°C
Dew
Point
°C
Rel
Hum
%
Delta-T
°C
Wind Press
QNH
hPa
Press
MSL
hPa
Rain since
9am
mm
Dir  Spd
km/h
Gust
km/h
Spd
kts
Gust
kts
27/04:30am 16.1 15.0 10.6 70 3.0 SW 7 11 4 6 1016.5 1015.0 0.0
27/04:00am 15.2 14.3 10.6 74 2.5 WSW 6 11 3 6 1016.0 1014.4 0.0
27/03:30am 14.7 14.1 10.5 76 2.3 WSW 4 6 2 3 1016.1 1014.5 0.0
27/03:00am 15.2 14.3 10.6 74 2.5 W 6 7 3 4 1016.1 1014.5 0.0
27/02:30am 15.5 15.3 10.5 72 2.7 NNE 2 6 1 3 1016.2 1014.6 0.0
27/02:00am 16.0 15.4 10.5 70 3.0 WSW 4 6 2 3 1016.4 1014.9 0.0
27/01:30am 16.7 16.1 10.3 66 3.5 WNW 4 7 2 4 1016.8 1015.3 0.0
27/01:00am 16.9 16.3 10.5 66 3.5 NNE 4 4 2 2 1016.7 1015.2 0.0
27/12:30am 17.3 17.1 10.4 64 3.8 ENE 2 4 1 2 1016.7 1015.2 0.0
27/12:00am 17.8 17.4 9.9 60 4.3 WNW 2 4 1 2 1016.8 1015.3 0.0
 
Date/Time
WST
Temp
°C
App
Temp
°C
Dew
Point
°C
Rel
Hum
%
Delta-T
°C
Wind Press
QNH
hPa
Press
MSL
hPa
Rain since
9am
mm
Dir  Spd
km/h
Gust
km/h
Spd
kts
Gust
kts
26/11:30pm 18.6 17.8 9.7 56 4.8 S 4 7 2 4 1017.1 1015.6 0.0
26/11:00pm 18.5 17.4 9.8 57 4.7 NNE 6 7 3 4 1017.0 1015.5 0.0
26/10:30pm 18.8 18.0 9.8 56 4.9 NNE 4 7 2 4 1017.0 1015.5 0.0
26/10:00pm 18.7 17.6 10.0 57 4.7 NNE 6 7 3 4 1017.0 1015.5 0.0
26/09:30pm 19.2 18.0 9.7 54 5.2 NNE 6 7 3 4 1016.9 1015.4 0.0
26/09:00pm 19.4 18.3 10.1 55 5.1 NNW 6 7 3 4 1017.0 1015.5 0.0
26/08:30pm 20.1 19.4 9.9 52 5.6 NNE 4 6 2 3 1017.0 1015.5 0.0
26/08:00pm 20.8 20.0 9.7 49 6.1 N 4 6 2 3 1016.8 1015.3 0.0
26/07:30pm 21.2 20.7 9.4 47 6.4 NNE 2 6 1 3 1016.6 1015.1 0.0
26/07:00pm 22.3 21.6 10.1 46 6.8 N 4 6 2 3 1016.4 1014.9 0.0
26/06:30pm 23.2 22.3 9.2 41 7.7 N 4 6 2 3 1016.2 1014.6 0.0
26/06:00pm 24.2 23.4 9.8 40 8.0 WNW 4 4 2 2 1015.8 1014.2 0.0
26/05:39pm 26.0 25.1 9.4 35 9.3 WNW 4 4 2 2 1015.5 1014.0 0.0
26/05:30pm 27.6 26.8 8.0 29 10.8 WSW 2 4 1 2 1015.5 1014.0 0.0
26/05:16pm 27.8 26.7 8.6 30 10.7 SW 4 6 2 3 1015.5 1014.0 0.0
26/05:00pm 28.4 27.0 8.7 29 11.0 WSW 6 7 3 4 1015.5 1014.0 0.0
26/04:30pm 29.1 27.0 8.2 27 11.6 SSW 9 11 5 6 1015.4 1013.9 0.0
26/04:00pm 29.3 27.2 6.0 23 12.5 SW 6 11 3 6 1015.4 1013.9 0.0
26/03:30pm 29.4 26.8 6.1 23 12.6 SW 9 15 5 8 1015.3 1013.8 0.0
26/03:00pm 29.7 27.2 6.4 23 12.6 SW 9 17 5 9 1015.3 1013.8 0.0
26/02:30pm 29.6 26.9 5.6 22 12.8 S 9 17 5 9 1015.4 1013.9 0.0
26/02:00pm 29.1 27.4 8.2 27 11.6 WSW 7 15 4 8 1015.7 1014.1 0.0
26/01:30pm 29.4 28.0 9.5 29 11.3 SSE 7 15 4 8 1016.0 1014.4 0.0
26/01:00pm 29.0 28.1 10.6 32 10.6 SW 6 15 3 8 1016.3 1014.7 0.0
26/12:30pm 28.6 27.5 9.8 31 10.7 ENE 6 11 3 6 1016.8 1015.3 0.0
26/12:00pm 28.5 27.1 9.7 31 10.7 ESE 7 13 4 7 1017.3 1015.8 0.0
26/11:30am 27.6 26.5 9.9 33 10.1 SE 6 11 3 6 1017.7 1016.2 0.0
26/11:00am 27.0 25.4 10.2 35 9.6 ESE 9 15 5 8 1018.2 1016.6 0.0
26/10:30am 26.3 23.9 10.0 36 9.2 E 13 19 7 10 1018.6 1017.1 0.0
26/10:00am 24.8 23.6 11.7 44 7.6 ESE 9 13 5 7 1019.0 1017.5 0.0
26/09:30am 23.1 22.5 12.4 51 6.2 SE 7 13 4 7 1019.1 1017.6 0.0
26/09:00am 21.7 21.4 12.8 57 5.2 SSE 6 9 3 5 1019.2 1017.7 0.0
26/08:30am 19.8 20.1 13.3 66 3.8 SSW 4 7 2 4 1019.1 1017.6 0.0
26/08:00am 18.2 18.0 12.9 71 3.0 SSW 6 9 3 5 1018.9 1017.4 0.0
26/07:30am 16.7 16.7 12.3 75 2.5 SSW 4 6 2 3 1018.7 1017.2 0.0
26/07:00am 15.8 16.1 12.2 79 2.0 S 2 4 1 2 1018.4 1016.9 0.0
26/06:30am 15.5 15.3 11.9 79 2.0 S 4 4 2 2 1018.1 1016.5 0.0
26/06:00am 16.0 15.9 12.0 77 2.2 ESE 4 6 2 3 1017.8 1016.3 0.0
26/05:30am 17.0 16.8 11.9 72 2.9 ESE 4 6 2 3 1017.6 1016.1 0.0
26/05:00am 17.0 17.0 12.3 74 2.6 SE 4 6 2 3 1017.4 1015.9 0.0
26/04:30am 17.6 17.2 12.3 71 3.0 SE 6 6 3 3 1017.3 1015.8 0.0
26/04:00am 17.9 17.4 12.1 69 3.3 ESE 6 9 3 5 1017.3 1015.8 0.0
26/03:30am 17.7 17.6 12.2 70 3.1 ESE 4 6 2 3 1017.4 1015.9 0.0
26/03:00am 18.6 17.9 12.1 66 3.7 ENE 7 7 4 4 1017.7 1016.2 0.0
26/02:30am 18.7 18.0 12.0 65 3.8 NE 7 17 4 9 1017.9 1016.4 0.0
26/02:00am 19.4 18.6 11.7 61 4.3 S 7 9 4 5 1017.9 1016.4 0.0
26/01:30am 20.3 18.8 12.0 59 4.7 SSE 11 15 6 8 1017.8 1016.3 0.0
26/01:00am 22.2 21.8 12.5 54 5.6 SE 6 11 3 6 1017.8 1016.3 0.0
26/12:30am 23.8 22.2 11.5 46 7.1 E 11 20 6 11 1017.5 1016.0 0.0
26/12:00am 23.3 21.1 12.0 49 6.5 ENE 15 20 8 11 1017.9 1016.4 0.0
 
Date/Time
WST
Temp
°C
App
Temp
°C
Dew
Point
°C
Rel
Hum
%
Delta-T
°C
Wind Press
QNH
hPa
Press
MSL
hPa
Rain since
9am
mm
Dir  Spd
km/h
Gust
km/h
Spd
kts
Gust
kts
25/11:30pm 23.2 19.4 12.5 51 6.2 NE 24 30 13 16 1018.1 1016.5 0.0
25/11:00pm 22.1 19.3 14.2 61 4.7 NNE 22 28 12 15 1018.5 1017.0 0.0
25/10:30pm 22.6 20.5 14.7 61 4.8 NNW 19 26 10 14 1018.8 1017.3 0.0
25/10:00pm 22.8 21.3 13.0 54 5.7 NNW 13 20 7 11 1019.1 1017.6 0.0
25/09:30pm 23.5 21.5 11.5 47 6.9 NNW 13 19 7 10 1019.1 1017.6 0.0
25/09:00pm 23.3 20.8 12.3 50 6.4 NW 17 26 9 14 1018.9 1017.4 0.0
25/08:30pm 21.5 21.6 11.5 53 5.7 NNE 2 6 1 3 1018.3 1016.7 0.0
25/08:00pm 21.5 21.5 11.2 52 5.8 ENE 2 4 1 2 1017.8 1016.3 0.0
25/07:30pm 22.1 22.1 11.2 50 6.2 SE 2 6 1 3 1017.5 1016.0 0.0
25/07:00pm 23.3 22.6 11.4 47 6.8 SE 6 7 3 4 1017.2 1015.7 0.0
25/06:30pm 24.5 23.6 10.8 42 7.8 SSE 6 9 3 5 1017.2 1015.7 0.0
25/06:14pm 24.9 24.0 10.8 41 8.0 S 6 7 3 4 1017.1 1015.6 0.0
25/06:00pm 25.5 24.4 10.5 39 8.5 S 7 9 4 5 1017.0 1015.5 0.0
25/05:54pm 25.7 24.5 10.3 38 8.7 S 7 9 4 5 1017.0 1015.5 0.0
25/05:30pm 26.6 25.4 10.3 36 9.3 SSE 7 11 4 6 1016.7 1015.2 0.0
25/05:00pm 28.3 26.8 10.5 33 10.2 SE 9 15 5 8 1016.4 1014.9 0.0
25/04:30pm 28.9 26.5 10.1 31 10.8 SE 13 17 7 9 1016.2 1014.6 0.0
25/04:00pm 29.1 26.4 10.3 31 10.8 SE 15 22 8 12 1016.1 1014.5 0.0
25/03:30pm 29.3 26.9 9.9 30 11.1 SSE 13 20 7 11 1016.1 1014.5 0.0
25/03:00pm 29.1 27.1 10.3 31 10.8 SE 11 20 6 11 1016.1 1014.5 0.0
25/02:30pm 29.4 27.1 10.5 31 10.9 SE 13 22 7 12 1016.1 1014.5 0.0
25/02:00pm 29.0 26.6 10.2 31 10.8 SE 13 22 7 12 1016.2 1014.6 0.0
25/01:30pm 28.8 27.1 10.0 31 10.8 SSE 9 19 5 10 1016.5 1015.0 0.0
25/01:00pm 28.4 26.1 10.6 33 10.3 SSE 13 20 7 11 1017.0 1015.5 0.0
25/12:30pm 27.9 26.0 10.6 34 10.0 ESE 11 20 6 11 1017.5 1016.0 0.0
25/12:00pm 27.3 25.8 10.5 35 9.6 SSE 9 19 5 10 1018.2 1016.6 0.0
25/11:30am 26.6 24.6 10.3 36 9.3 SSE 11 17 6 9 1018.6 1017.1 0.0
25/11:00am 25.2 23.1 9.9 38 8.6 SSE 11 19 6 10 1019.0 1017.5 0.0
25/10:30am 23.6 21.9 9.9 42 7.6 SE 9 17 5 9 1019.4 1017.9 0.0
25/10:00am 22.2 19.9 9.0 43 7.2 ESE 11 19 6 10 1019.6 1018.1 0.0
25/09:30am 21.0 18.3 8.9 46 6.5 SE 13 17 7 9 1020.1 1018.6 0.0
25/09:00am 19.7 17.7 8.7 49 5.9 SE 9 15 5 8 1020.1 1018.6 0.0
25/08:30am 18.2 16.2 8.7 54 5.0 SSE 9 15 5 8 1019.8 1018.3 0.0
25/08:00am 16.7 14.9 9.6 63 3.8 SSE 9 15 5 8 1019.9 1018.4 0.0
25/07:30am 14.9 13.8 9.9 72 2.7 SSE 6 9 3 5 1019.6 1018.1 0.0
25/07:24am 14.7 14.0 10.1 74 2.5 SSE 4 7 2 4 1019.5 1018.0 0.0
25/07:00am 13.2 12.1 10.0 81 1.7 SSE 6 6 3 3 1019.4 1017.9 0.0
25/06:53am 13.0 12.2 9.8 81 1.7 SSE 4 7 2 4 1019.4 1017.9 0.0
25/06:44am 12.5 12.2 10.0 85 1.3 SSE 2 6 1 3 1019.2 1017.7 0.0
25/06:30am 13.0 12.3 10.0 82 1.6 SE 4 6 2 3 1019.1 1017.6 0.0
25/06:27am 13.2 12.5 10.0 81 1.7 SE 4 6 2 3 1019.0 1017.5 0.0
25/06:00am 13.2 13.0 10.6 84 1.4 SSW 2 7 1 4 1018.9 1017.4 0.0
25/05:30am 13.6 12.5 10.6 82 1.6 SSW 7 11 4 6 1018.5 1017.0 0.0
25/05:00am 13.7 12.8 10.7 82 1.6 SW 6 7 3 4 1018.2 1016.6 0.0
25/04:30am 14.6 13.7 10.6 77 2.2 SSE 6 7 3 4 1017.8 1016.3 0.0
25/04:00am 14.3 13.0 10.1 76 2.2 SSW 7 11 4 6 1017.7 1016.2 0.0
25/03:30am 15.1 14.3 9.5 69 3.0 SSE 4 7 2 4 1017.6 1016.1 0.0
25/03:00am 16.6 16.1 9.3 62 3.9 E 2 4 1 2 1017.5 1016.0 0.0
25/02:30am 16.5 15.1 9.0 61 4.0 SW 6 9 3 5 1017.7 1016.2 0.0
25/02:00am 18.2 16.8 9.0 55 4.9 ENE 6 9 3 5 1017.8 1016.3 0.0
25/01:30am 19.7 17.7 8.7 49 5.9 ENE 9 11 5 6 1017.9 1016.4 0.0
25/01:00am 18.1 17.2 9.2 56 4.7 ENE 4 6 2 3 1018.1 1016.5 0.0
25/12:30am 19.0 17.5 9.2 53 5.3 NE 7 7 4 4 1018.2 1016.6 0.0
25/12:00am 18.6 17.7 9.4 55 4.9 E 4 4 2 2 1018.3 1016.7 0.0
 
Date/Time
WST
Temp
°C
App
Temp
°C
Dew
Point
°C
Rel
Hum
%
Delta-T
°C
Wind Press
QNH
hPa
Press
MSL
hPa
Rain since
9am
mm
Dir  Spd
km/h
Gust
km/h
Spd
kts
Gust
kts
24/11:30pm 19.3 18.0 9.8 54 5.2 ENE 7 9 4 5 1018.6 1017.1 0.0
24/11:00pm 19.6 18.3 10.0 54 5.2 ENE 7 11 4 6 1018.7 1017.2 0.0
24/10:30pm 19.8 18.8 10.2 54 5.3 E 6 7 3 4 1018.8 1017.3 0.0
24/10:00pm 20.1 19.0 10.5 54 5.3 E 7 7 4 4 1018.9 1017.4 0.0
24/09:30pm 19.8 19.2 10.5 55 5.1 NE 4 6 2 3 1019.0 1017.5 0.0
24/09:00pm 20.2 19.3 10.6 54 5.3 ENE 6 6 3 3 1019.0 1017.5 0.0
24/08:30pm 21.0 20.1 10.5 51 5.8 E 6 6 3 3 1019.0 1017.5 0.0
24/08:00pm 21.3 20.4 10.8 51 5.9 ENE 6 7 3 4 1018.9 1017.4 0.0
24/07:30pm 22.4 21.5 10.5 47 6.7 E 6 9 3 5 1018.8 1017.3 0.0
24/07:00pm 22.4 21.8 10.5 47 6.7 ESE 4 6 2 3 1018.5 1017.0 0.0
24/06:30pm 23.7 22.7 10.4 43 7.5 SE 6 9 3 5 1018.2 1016.6 0.0
24/06:00pm 24.4 23.2 10.3 41 7.9 SE 7 7 4 4 1017.7 1016.2 0.0
24/05:30pm 25.6 24.4 10.2 38 8.7 SSE 7 9 4 5 1017.3 1015.8 0.0
24/05:00pm 27.0 24.9 9.8 34 9.7 SSE 11 15 6 8 1017.0 1015.5 0.0
24/04:30pm 27.6 25.0 9.4 32 10.3 SSE 13 19 7 10 1016.7 1015.2 0.0
24/04:00pm 28.1 25.1 9.4 31 10.6 SSE 15 26 8 14 1016.6 1015.1 0.0
24/03:30pm 28.4 25.9 9.6 31 10.7 SE 13 22 7 12 1016.6 1015.1 0.0
24/03:00pm 27.9 25.7 9.2 31 10.5 SE 11 20 6 11 1016.6 1015.1 0.0
24/02:30pm 28.0 25.4 9.3 31 10.6 SSE 13 20 7 11 1016.7 1015.2 0.0
24/02:00pm 28.1 25.9 9.4 31 10.6 ESE 11 19 6 10 1016.9 1015.4 0.0
24/01:30pm 27.5 25.4 8.4 30 10.6 SE 9 19 5 10 1017.3 1015.8 0.0
24/01:00pm 27.0 23.8 8.4 31 10.3 ESE 15 22 8 12 1017.7 1016.2 0.0
24/12:30pm 26.7 23.8 8.2 31 10.2 ESE 13 22 7 12 1018.4 1016.9 0.0
24/12:00pm 27.0 24.2 8.4 31 10.3 ESE 13 20 7 11 1019.0 1017.5 0.0
24/11:30am 25.6 22.2 7.7 32 9.7 ESE 15 22 8 12 1019.4 1017.9 0.0
24/11:00am 24.9 22.0 8.0 34 9.2 ESE 13 22 7 12 1019.8 1018.3 0.0
24/10:30am 23.7 20.3 7.8 36 8.5 SE 15 19 8 10 1020.1 1018.6 0.0
24/10:00am 21.6 18.2 7.8 41 7.3 ESE 15 20 8 11 1020.6 1019.1 0.0
24/09:30am 20.1 17.1 7.8 45 6.5 SE 13 17 7 9 1020.9 1019.4 0.0
24/09:00am 18.5 16.3 7.9 50 5.5 SE 9 15 5 8 1021.0 1019.5 0.0
24/08:30am 15.8 14.0 7.8 59 4.1 S 7 11 4 6 1021.0 1019.5 0.0
24/08:00am 14.1 11.8 7.6 65 3.3 SSE 9 13 5 7 1020.9 1019.4 0.0
24/07:30am 12.7 10.9 7.8 72 2.5 SSE 7 11 4 6 1020.6 1019.1 0.0
24/07:00am 11.9 10.3 8.0 77 1.9 SSE 6 7 3 4 1020.1 1018.6 0.0
24/06:30am 11.5 9.9 8.0 79 1.8 SSE 6 7 3 4 1019.7 1018.2 0.0
24/06:00am 11.7 10.5 8.2 79 1.8 S 4 7 2 4 1019.6 1018.1 0.0
24/05:30am 11.5 10.3 8.2 80 1.7 S 4 7 2 4 1019.3 1017.8 0.0
24/05:00am 12.1 10.4 8.2 77 2.0 SSE 7 9 4 5 1019.1 1017.6 0.0

Other Formats:

Comma delimited format used in spreadsheet applications
http://www.bom.gov.au/fwo/IDW60801/IDW60801.99737.axf

JavaScript Object Notation format (JSON) in row-major order
http://www.bom.gov.au/fwo/IDW60801/IDW60801.99737.json